createdAt,value
2018-04-12T00:00:28.689Z,10.40
2018-04-12T00:02:57.621Z,10.60
2018-04-12T00:05:26.949Z,10.60
2018-04-12T00:07:56.281Z,10.50
2018-04-12T00:10:25.187Z,10.60
2018-04-12T00:15:25.723Z,10.60
2018-04-12T00:17:55.583Z,10.70
2018-04-12T00:20:24.540Z,10.60
2018-04-12T00:22:53.559Z,10.60
2018-04-12T00:25:23.615Z,10.70
2018-04-12T00:27:52.928Z,10.70
2018-04-12T00:30:22.235Z,10.60
2018-04-12T00:32:51.547Z,10.50
2018-04-12T00:35:22.396Z,10.50
2018-04-12T00:37:51.315Z,10.60
2018-04-12T00:40:20.262Z,10.70
2018-04-12T00:42:50.314Z,10.60
2018-04-12T00:45:19.249Z,10.60
2018-04-12T00:47:48.975Z,10.70
2018-04-12T00:50:17.895Z,10.60
2018-04-12T00:52:47.592Z,10.60
2018-04-12T00:55:16.542Z,10.70
2018-04-12T00:57:45.465Z,10.70
2018-04-12T01:00:14.378Z,10.70
2018-04-12T01:02:44.095Z,10.60
2018-04-12T01:05:13.791Z,10.60
2018-04-12T01:07:42.703Z,10.50
2018-04-12T01:10:11.625Z,10.60
2018-04-12T01:12:40.556Z,10.60
2018-04-12T01:15:09.972Z,10.60
2018-04-12T01:17:39.677Z,10.60
2018-04-12T01:22:39.430Z,10.60
2018-04-12T01:25:08.343Z,10.50
2018-04-12T01:27:37.273Z,10.40
2018-04-12T01:32:37.026Z,10.20
2018-04-12T01:35:06.003Z,10.10
2018-04-12T01:37:35.693Z,10.10
2018-04-12T01:40:04.616Z,10.10
2018-04-12T01:42:33.548Z,10.00
2018-04-12T01:45:02.848Z,9.90
2018-04-12T01:47:31.792Z,9.90
2018-04-12T01:50:00.711Z,9.90
2018-04-12T01:52:32.378Z,9.90
2018-04-12T01:57:31.352Z,9.80
2018-04-12T02:02:31.200Z,9.60
2018-04-12T02:05:00.139Z,9.40
2018-04-12T02:07:29.053Z,9.50
2018-04-12T02:09:58.718Z,9.50
2018-04-12T02:12:27.644Z,10.60
2018-04-12T02:14:57.348Z,9.30
2018-04-12T02:17:27.042Z,9.30
2018-04-12T02:22:26.046Z,8.90
2018-04-12T02:24:55.132Z,8.80
2018-04-12T02:27:24.055Z,8.80
2018-04-12T02:29:53.755Z,8.70
2018-04-12T02:32:23.446Z,8.70
2018-04-12T02:34:52.360Z,8.80
2018-04-12T02:37:22.032Z,8.70
2018-04-12T02:39:50.969Z,8.80
2018-04-12T02:42:19.888Z,8.70
2018-04-12T02:44:48.803Z,8.70
2018-04-12T02:47:19.732Z,8.70
2018-04-12T02:49:48.638Z,8.60
2018-04-12T02:52:17.571Z,8.60
2018-04-12T02:54:46.478Z,8.50
2018-04-12T02:57:16.521Z,8.50
2018-04-12T02:59:45.455Z,8.40
2018-04-12T03:02:15.111Z,8.40
2018-04-12T03:04:44.041Z,8.50
2018-04-12T03:09:43.032Z,8.60
2018-04-12T03:12:11.950Z,8.70
2018-04-12T03:14:41.641Z,8.80
2018-04-12T03:17:10.564Z,8.90
2018-04-12T03:19:39.893Z,8.80
2018-04-12T03:22:08.797Z,8.90
2018-04-12T03:24:37.708Z,8.70
2018-04-12T03:27:06.640Z,8.70
2018-04-12T03:29:35.547Z,8.70
2018-04-12T03:32:04.469Z,8.50
2018-04-12T03:34:33.376Z,8.40
2018-04-12T03:37:02.299Z,8.30
2018-04-12T03:39:31.237Z,8.30
2018-04-12T03:42:00.582Z,8.30
2018-04-12T03:44:29.886Z,8.30
2018-04-12T03:46:58.808Z,8.30
2018-04-12T03:49:28.942Z,8.50
2018-04-12T03:51:57.802Z,8.50
2018-04-12T03:56:58.729Z,8.80
2018-04-12T03:59:28.432Z,8.80
2018-04-12T04:04:27.422Z,9.00
2018-04-12T04:06:56.727Z,9.00
2018-04-12T04:09:26.421Z,9.00
2018-04-12T04:11:56.472Z,8.90
2018-04-12T04:14:37.878Z,8.90
2018-04-12T04:17:18.510Z,8.80
2018-04-12T04:20:00.097Z,8.90
2018-04-12T04:22:29.024Z,8.60
2018-04-12T04:24:57.969Z,8.60
2018-04-12T04:27:26.874Z,8.50
2018-04-12T04:29:56.555Z,8.50
2018-04-12T04:32:25.864Z,8.50
2018-04-12T04:37:24.863Z,8.70
2018-04-12T04:39:53.792Z,8.80
2018-04-12T04:42:23.475Z,8.80
2018-04-12T04:44:52.390Z,8.90
2018-04-12T04:47:21.364Z,8.90
2018-04-12T04:49:50.276Z,8.90
2018-04-12T04:52:20.695Z,8.90
2018-04-12T04:54:51.318Z,8.80
2018-04-12T04:57:20.999Z,8.80
2018-04-12T04:59:49.946Z,8.90
2018-04-12T05:02:18.865Z,8.90
2018-04-12T05:04:47.774Z,8.80
2018-04-12T05:07:17.528Z,8.80
2018-04-12T05:09:47.188Z,9.00
2018-04-12T05:12:16.114Z,9.00
2018-04-12T05:14:45.041Z,9.00
2018-04-12T05:17:13.955Z,9.00
2018-04-12T05:19:42.900Z,8.90
2018-04-12T05:22:12.686Z,8.90
2018-04-12T05:24:41.582Z,8.80
2018-04-12T05:27:11.246Z,9.00
2018-04-12T05:29:40.166Z,9.10
2018-04-12T05:32:09.860Z,9.10
2018-04-12T05:34:39.190Z,9.20
2018-04-12T05:37:08.112Z,9.20
2018-04-12T05:39:37.025Z,9.40
2018-04-12T05:42:05.959Z,9.40
2018-04-12T05:44:35.627Z,9.40
2018-04-12T05:47:04.530Z,9.50
2018-04-12T05:49:33.860Z,9.40
2018-04-12T05:52:03.569Z,9.60
2018-04-12T05:54:34.016Z,9.60
2018-04-12T05:57:02.921Z,9.60
2018-04-12T05:59:31.854Z,9.60
2018-04-12T06:02:01.545Z,9.70
2018-04-12T06:04:30.461Z,9.60
2018-04-12T06:06:59.786Z,9.60
2018-04-12T06:09:29.512Z,9.50
2018-04-12T06:11:59.940Z,9.60
2018-04-12T06:14:28.842Z,9.50
2018-04-12T06:16:57.761Z,9.40
2018-04-12T06:19:27.149Z,9.30
2018-04-12T06:21:57.865Z,9.30
2018-04-12T06:26:57.255Z,9.40
2018-04-12T06:29:26.169Z,9.50
2018-04-12T06:31:55.229Z,9.40
2018-04-12T06:34:25.269Z,9.50
2018-04-12T06:36:54.184Z,9.60
2018-04-12T06:39:23.114Z,9.60
2018-04-12T06:41:52.822Z,9.50
2018-04-12T06:46:51.827Z,9.70
2018-04-12T06:49:21.533Z,9.70
2018-04-12T06:51:50.459Z,9.70
2018-04-12T06:54:19.380Z,9.60
2018-04-12T06:56:49.090Z,9.60
2018-04-12T07:01:48.458Z,9.70
2018-04-12T07:04:17.782Z,9.60
2018-04-12T07:09:16.756Z,9.60
2018-04-12T07:11:45.678Z,9.80
2018-04-12T07:14:14.579Z,9.90
2018-04-12T07:16:43.513Z,9.90
2018-04-12T07:19:13.220Z,10.00
2018-04-12T07:21:42.162Z,10.10
2018-04-12T07:24:11.089Z,10.00
2018-04-12T07:26:40.049Z,10.00
2018-04-12T07:29:08.957Z,10.10
2018-04-12T07:34:08.359Z,10.10
2018-04-12T07:36:37.308Z,10.10
2018-04-12T07:39:06.246Z,10.20
2018-04-12T07:41:35.184Z,10.20
2018-04-12T07:44:04.116Z,10.30
2018-04-12T07:46:33.056Z,10.30
2018-04-12T07:49:02.736Z,10.20
2018-04-12T07:51:31.712Z,10.20
2018-04-12T07:54:00.659Z,10.30
2018-04-12T07:56:30.350Z,10.40
2018-04-12T07:59:01.610Z,10.50
2018-04-12T08:01:30.570Z,10.60
2018-04-12T08:04:00.314Z,10.60
2018-04-12T08:06:29.632Z,10.60
2018-04-12T08:08:59.376Z,10.70
2018-04-12T08:11:28.312Z,10.70
2018-04-12T08:13:58.009Z,10.80
2018-04-12T08:16:28.352Z,10.90
2018-04-12T08:18:58.008Z,10.70
2018-04-12T08:21:26.962Z,10.80
2018-04-12T08:23:55.903Z,10.80
2018-04-12T08:26:24.825Z,10.80
2018-04-12T08:28:53.834Z,10.90
2018-04-12T08:31:22.712Z,11.10
2018-04-12T08:33:51.691Z,11.40
2018-04-12T08:36:21.942Z,11.50
2018-04-12T08:38:50.941Z,11.40
2018-04-12T08:41:20.697Z,11.40
2018-04-12T08:43:50.429Z,11.50
2018-04-12T08:48:50.423Z,11.30
2018-04-12T08:51:19.781Z,11.30
2018-04-12T08:53:50.002Z,11.20
2018-04-12T08:56:18.963Z,11.20
2018-04-12T08:58:49.488Z,11.10
2018-04-12T09:01:18.440Z,11.20
2018-04-12T09:03:47.372Z,11.30
2018-04-12T09:08:46.429Z,11.60
2018-04-12T09:11:15.418Z,11.90
2018-04-12T09:13:45.066Z,11.90
2018-04-12T09:16:15.200Z,12.30
2018-04-12T09:18:45.594Z,12.60
2018-04-12T09:21:16.039Z,12.60
2018-04-12T09:23:45.489Z,12.70
2018-04-12T09:26:14.417Z,12.70
2018-04-12T09:28:45.184Z,12.80
2018-04-12T09:31:16.224Z,13.00
2018-04-12T09:33:45.598Z,13.00
2018-04-12T09:36:14.530Z,13.20
2018-04-12T09:38:44.500Z,13.30
2018-04-12T09:41:15.024Z,13.10
2018-04-12T09:43:43.947Z,13.30
2018-04-12T09:46:13.652Z,13.50
2018-04-12T09:48:43.557Z,13.70
2018-04-12T09:51:13.976Z,13.90
2018-04-12T09:56:13.820Z,14.30
2018-04-12T09:58:44.355Z,14.20
2018-04-12T10:01:15.017Z,14.20
2018-04-12T10:03:44.750Z,14.40
2018-04-12T10:06:20.200Z,14.80
2018-04-12T10:08:54.782Z,15.00
2018-04-12T10:11:25.302Z,15.20
2018-04-12T10:13:54.998Z,15.20
2018-04-12T10:16:23.995Z,15.30
2018-04-12T10:18:54.746Z,15.40
2018-04-12T10:21:25.224Z,15.20
2018-04-12T10:23:55.744Z,15.20
2018-04-12T10:26:25.044Z,15.20
2018-04-12T10:28:54.742Z,15.00
2018-04-12T10:31:23.668Z,15.10
2018-04-12T10:33:54.200Z,15.00
2018-04-12T10:36:24.013Z,15.30
2018-04-12T10:38:57.291Z,15.60
2018-04-12T10:41:26.816Z,15.90
2018-04-12T10:43:56.587Z,16.10
2018-04-12T10:46:25.991Z,16.50
2018-04-12T10:48:56.870Z,16.70
2018-04-12T10:51:25.806Z,16.80
2018-04-12T10:53:54.828Z,16.90
2018-04-12T10:56:24.586Z,17.00
2018-04-12T10:58:55.640Z,17.20
2018-04-12T11:01:24.610Z,17.50
2018-04-12T11:03:53.549Z,17.60
2018-04-12T11:06:23.773Z,17.60
2018-04-12T11:08:53.538Z,17.60
2018-04-12T11:11:22.483Z,17.80
2018-04-12T11:13:53.853Z,17.80
2018-04-12T11:18:53.375Z,17.90
2018-04-12T11:21:22.303Z,18.10
2018-04-12T11:23:52.047Z,18.20
2018-04-12T11:26:21.415Z,18.20
2018-04-12T11:28:50.445Z,18.50
2018-04-12T11:31:19.349Z,18.60
2018-04-12T11:33:49.325Z,18.70
2018-04-12T11:36:18.232Z,18.80
2018-04-12T11:38:47.945Z,18.60
2018-04-12T11:41:16.907Z,18.70
2018-04-12T11:46:20.082Z,18.70
2018-04-12T11:48:51.190Z,18.80
2018-04-12T11:51:20.527Z,18.90
2018-04-12T11:53:49.485Z,18.80
2018-04-12T11:56:19.199Z,18.60
2018-04-12T11:58:49.698Z,18.40
2018-04-12T12:01:19.433Z,18.20
2018-04-12T12:03:49.889Z,17.90
2018-04-12T12:06:19.601Z,17.50
2018-04-12T12:13:52.116Z,16.70
2018-04-12T12:16:21.573Z,16.70
2018-04-12T12:18:52.978Z,16.60
2018-04-12T12:21:22.009Z,16.60
2018-04-12T12:23:52.443Z,16.50
2018-04-12T12:26:23.472Z,16.30
2018-04-12T12:28:53.181Z,16.20
2018-04-12T12:33:52.188Z,16.30
2018-04-12T12:36:22.615Z,16.50
2018-04-12T12:38:52.336Z,16.70
2018-04-12T12:41:28.646Z,16.80
2018-04-12T12:43:57.585Z,16.80
2018-04-12T12:46:27.389Z,17.00
2018-04-12T12:48:57.449Z,17.00
2018-04-12T12:51:32.365Z,17.10
2018-04-12T12:54:02.070Z,17.20
2018-04-12T12:56:31.038Z,17.20
2018-04-12T12:58:59.944Z,17.30
2018-04-12T13:01:29.276Z,17.40
2018-04-12T13:06:34.144Z,17.50
2018-04-12T13:09:03.065Z,17.60
2018-04-12T13:11:32.781Z,17.60
2018-04-12T13:14:02.461Z,17.70
2018-04-12T13:16:43.158Z,17.60
2018-04-12T13:19:18.578Z,17.70
2018-04-12T13:21:47.450Z,17.90
2018-04-12T13:24:16.398Z,17.90
2018-04-12T13:26:51.234Z,18.00
2018-04-12T13:29:20.929Z,18.30
2018-04-12T13:31:49.882Z,18.60
2018-04-12T13:34:24.382Z,18.70
2018-04-12T13:36:53.736Z,19.00
2018-04-12T13:39:22.658Z,19.20
2018-04-12T13:41:51.591Z,19.40
2018-04-12T13:44:26.369Z,20.20
2018-04-12T13:46:55.311Z,21.60
2018-04-12T13:49:30.399Z,22.80
2018-04-12T13:52:00.476Z,23.70
2018-04-12T13:54:30.192Z,24.30
2018-04-12T13:57:04.871Z,25.20
2018-04-12T13:59:34.262Z,26.60
2018-04-12T14:04:39.517Z,27.30
2018-04-12T14:07:20.217Z,27.30
2018-04-12T14:10:01.374Z,27.30
2018-04-12T14:12:30.700Z,27.70
2018-04-12T14:15:06.393Z,27.60
2018-04-12T14:17:35.313Z,27.60
2018-04-12T14:20:04.271Z,27.70
2018-04-12T14:22:33.189Z,27.50
2018-04-12T14:25:02.165Z,27.60
2018-04-12T14:27:31.112Z,27.60
2018-04-12T14:30:06.182Z,28.30
2018-04-12T14:32:47.703Z,28.70
2018-04-12T14:35:16.653Z,28.60
2018-04-12T14:37:45.711Z,28.80
2018-04-12T14:40:20.614Z,29.20
2018-04-12T14:42:49.940Z,28.90
2018-04-12T14:45:19.635Z,29.10
2018-04-12T14:47:48.966Z,28.70
2018-04-12T14:50:17.887Z,28.60
2018-04-12T14:57:47.984Z,27.90
2018-04-12T15:00:17.683Z,28.60
2018-04-12T15:02:53.271Z,29.00
2018-04-12T15:05:22.981Z,29.20
2018-04-12T15:07:57.849Z,29.00
2018-04-12T15:10:33.092Z,28.30
2018-04-12T15:13:13.696Z,27.60
2018-04-12T15:15:43.026Z,27.70
2018-04-12T15:20:43.009Z,28.50
2018-04-12T15:23:12.360Z,27.50
2018-04-12T15:25:42.189Z,26.20
2018-04-12T15:28:17.723Z,24.90
2018-04-12T15:35:52.514Z,23.90
2018-04-12T15:38:22.647Z,23.70
2018-04-12T15:40:58.400Z,23.30
2018-04-12T15:43:27.707Z,22.90
2018-04-12T15:45:56.631Z,22.70
2018-04-12T15:48:25.557Z,22.50
2018-04-12T15:50:54.490Z,22.60
2018-04-12T15:53:23.414Z,22.50
2018-04-12T15:56:04.191Z,22.20
2018-04-12T15:58:33.128Z,22.50
2018-04-12T16:03:37.709Z,21.90
2018-04-12T16:06:19.102Z,21.70
2018-04-12T16:08:49.251Z,21.60
2018-04-12T16:11:24.801Z,21.60
2018-04-12T16:14:00.134Z,21.30
2018-04-12T16:16:29.884Z,21.10
2018-04-12T16:18:58.809Z,20.70
2018-04-12T16:21:27.740Z,20.60
2018-04-12T16:24:02.510Z,20.50
2018-04-12T16:26:32.214Z,20.40
2018-04-12T16:29:01.189Z,20.50
2018-04-12T16:34:25.730Z,20.90
2018-04-12T16:36:57.109Z,20.70
2018-04-12T16:39:32.736Z,20.50
2018-04-12T16:42:07.690Z,20.30
2018-04-12T16:44:36.638Z,20.10
2018-04-12T16:47:05.570Z,19.90
2018-04-12T16:49:41.066Z,19.80
2018-04-12T16:52:16.279Z,19.90
2018-04-12T16:54:45.220Z,20.10
2018-04-12T16:57:14.145Z,20.20
2018-04-12T16:59:43.077Z,20.20
2018-04-12T17:02:12.433Z,20.20
2018-04-12T17:04:42.527Z,20.30
2018-04-12T17:07:12.435Z,20.20
2018-04-12T17:09:41.393Z,20.10
2018-04-12T17:12:10.377Z,20.10
2018-04-12T17:14:39.325Z,20.10
2018-04-12T17:17:15.905Z,19.90
2018-04-12T17:19:45.615Z,20.10
2018-04-12T17:24:52.252Z,20.30
2018-04-12T17:29:57.142Z,20.40
2018-04-12T17:35:07.933Z,20.30
2018-04-12T17:37:42.534Z,20.10
2018-04-12T17:42:41.577Z,19.70
2018-04-12T17:45:16.474Z,19.50
2018-04-12T17:47:52.716Z,19.40
2018-04-12T17:50:21.741Z,19.20
2018-04-12T17:52:51.067Z,19.00
2018-04-12T17:55:22.435Z,18.80
2018-04-12T17:57:52.402Z,18.80
2018-04-12T18:00:22.115Z,18.70
2018-04-12T18:02:52.590Z,18.70
2018-04-12T18:05:27.530Z,18.60
2018-04-12T18:07:56.568Z,18.50
2018-04-12T18:10:25.934Z,18.50
2018-04-12T18:15:37.450Z,18.30
2018-04-12T18:18:11.946Z,18.20
2018-04-12T18:20:40.916Z,18.20
2018-04-12T18:23:15.772Z,18.10
2018-04-12T18:25:45.086Z,18.00
2018-04-12T18:28:14.470Z,17.90
2018-04-12T18:30:44.176Z,17.80
2018-04-12T18:38:20.563Z,17.80
2018-04-12T18:41:02.216Z,17.80
2018-04-12T18:46:08.596Z,17.60
2018-04-12T18:48:37.982Z,17.60
2018-04-12T18:53:37.914Z,17.40
2018-04-12T18:56:08.043Z,17.40
2018-04-12T18:58:38.147Z,17.40
2018-04-12T19:01:14.496Z,17.30
2018-04-12T19:03:55.165Z,17.30
2018-04-12T19:06:30.326Z,17.20
2018-04-12T19:09:00.362Z,17.00
2018-04-12T19:11:29.422Z,16.90
2018-04-12T19:13:59.163Z,16.90
2018-04-12T19:16:28.978Z,16.70
2018-04-12T19:19:09.591Z,16.60
2018-04-12T19:21:38.582Z,16.40
2018-04-12T19:24:07.575Z,16.40
2018-04-12T19:26:37.831Z,16.40
2018-04-12T19:29:08.965Z,16.30
2018-04-12T19:31:38.322Z,16.10
2018-04-12T19:36:43.744Z,16.00
2018-04-12T19:41:45.825Z,16.00
2018-04-12T19:44:15.640Z,15.90
2018-04-12T19:46:46.450Z,15.90
2018-04-12T19:51:45.544Z,15.70
2018-04-12T19:54:15.277Z,15.60
2018-04-12T19:56:50.657Z,15.60
2018-04-12T19:59:19.624Z,15.60
2018-04-12T20:01:49.377Z,15.70
2018-04-12T20:04:19.496Z,15.70
2018-04-12T20:09:18.545Z,15.70
2018-04-12T20:11:54.180Z,15.70
2018-04-12T20:14:23.966Z,15.60
2018-04-12T20:16:52.903Z,15.50
2018-04-12T20:19:23.399Z,15.40
2018-04-12T20:24:34.209Z,15.40
2018-04-12T20:29:46.210Z,15.30
2018-04-12T20:32:15.170Z,16.00
2018-04-12T20:34:44.110Z,15.20
2018-04-12T20:37:19.021Z,15.30
2018-04-12T20:39:48.389Z,15.30
2018-04-12T20:42:17.384Z,15.20
2018-04-12T20:44:46.336Z,15.20
2018-04-12T20:47:15.300Z,15.30
2018-04-12T20:52:20.390Z,15.20
2018-04-12T20:57:19.419Z,15.10
2018-04-12T21:02:19.584Z,15.00
2018-04-12T21:04:50.051Z,15.00
2018-04-12T21:07:24.888Z,15.00
2018-04-12T21:09:53.844Z,14.90
2018-04-12T21:12:22.762Z,14.80
2018-04-12T21:14:52.511Z,14.80
2018-04-12T21:17:21.448Z,14.70
2018-04-12T21:19:50.424Z,14.80
2018-04-12T21:27:19.484Z,14.80
2018-04-12T21:32:24.168Z,14.70
2018-04-12T21:34:54.249Z,14.70
2018-04-12T21:37:29.443Z,14.70
2018-04-12T21:39:59.903Z,14.70
2018-04-12T21:42:28.847Z,14.70
2018-04-12T21:44:58.516Z,14.70
2018-04-12T21:47:28.792Z,14.80
2018-04-12T21:49:59.246Z,14.80
2018-04-12T21:52:34.131Z,14.80
2018-04-12T21:55:03.098Z,14.90
2018-04-12T21:57:39.522Z,14.90
2018-04-12T22:00:16.551Z,14.70
2018-04-12T22:02:51.241Z,14.70
2018-04-12T22:05:26.135Z,14.70
2018-04-12T22:15:25.803Z,14.70
2018-04-12T22:20:31.544Z,14.70
2018-04-12T22:23:07.346Z,14.70
2018-04-12T22:25:36.286Z,14.60
2018-04-12T22:28:05.998Z,14.60
2018-04-12T22:30:35.705Z,14.70
2018-04-12T22:33:05.024Z,14.60
2018-04-12T22:35:33.960Z,14.60
2018-04-12T22:43:14.465Z,14.60
2018-04-12T22:45:43.795Z,14.50
2018-04-12T22:48:25.187Z,14.50
2018-04-12T22:51:00.082Z,14.50
2018-04-12T22:53:34.996Z,14.50
2018-04-12T22:56:03.927Z,14.40
2018-04-12T22:58:45.353Z,14.30
2018-04-12T23:03:45.483Z,14.30
2018-04-12T23:06:32.220Z,14.20
2018-04-12T23:09:07.117Z,14.30
2018-04-12T23:11:36.815Z,14.20
2018-04-12T23:14:05.737Z,14.10
2018-04-12T23:16:34.677Z,14.10
2018-04-12T23:19:03.996Z,14.10
2018-04-12T23:21:38.593Z,14.10
2018-04-12T23:24:13.731Z,14.00
2018-04-12T23:26:43.828Z,14.00
2018-04-12T23:29:12.752Z,14.00
2018-04-12T23:31:47.917Z,14.00
2018-04-12T23:34:16.844Z,14.00
2018-04-12T23:36:51.444Z,14.00
2018-04-12T23:39:20.362Z,13.80
2018-04-12T23:41:50.424Z,13.70
2018-04-12T23:44:19.367Z,13.80
2018-04-12T23:46:48.283Z,13.80
2018-04-12T23:49:18.006Z,13.80
2018-04-12T23:51:53.395Z,13.70
2018-04-12T23:54:22.335Z,13.80
2018-04-12T23:56:51.318Z,13.90
2018-04-12T23:59:21.021Z,13.90
